^^
Saratoga-Weather Station Historical Data
Daily Summary for October 26, 2020 Units:  Both    English   Metric
Daily Weekly Monthly Yearly Custom
  High: Low: Average:
Temperature: 54 °F /  12.2 °C 45.9 °F /  7.7 °C 49.8 °F /  9.9 °C
Dew Point: 49.5 °F /  9.7 °C 43 °F /  6.1 °C 46 °F /  7.8 °C
Humidity: 96% 70% 87%
Wind Speed: 15mph /  24.1km/h - 1.4mph /  2.2km/h
Wind Gust: 16mph /  25.7km/h - -
Wind- - SW
Pressure: 29.7 in /  1006.4 hPa 29.6 in /  1001.7 hPa -
Precipitation: 0.06 in /  1.5 mm    
Historical Graphs
 
 
Tabular Data for October 26, 2020
Time Temperature Dew Point Pressure Wind Wind Speed Wind Gust Humidity Rainfall Rate (Hourly) solar
00:01 50 °F /  10 °C 48.9 °F /  9.4 °C 29.6in /  1002.7hPa NE 0.9mph /  1.4km/h 1mph /  1.6km/h 96% 0in /  0.0mm 0 W/m2
00:06 50.2 °F /  10.1 °C 49.1 °F /  9.5 °C 29.6in /  1002.7hPa Calm   2mph /  3.2km/h 96% 0in /  0.0mm 0 W/m2
00:11 50.2 °F /  10.1 °C 49.1 °F /  9.5 °C 29.6in /  1002.4hPa NE 2.9mph /  4.7km/h 3mph /  4.8km/h 96% 0in /  0.0mm 0 W/m2
00:16 50.4 °F /  10.2 °C 49.3 °F /  9.6 °C 29.6in /  1002.4hPa ENE 0.9mph /  1.4km/h 1mph /  1.6km/h 96% 0in /  0.0mm 0 W/m2
00:21 50.4 °F /  10.2 °C 49.3 °F /  9.6 °C 29.6in /  1002.4hPa Calm   3mph /  4.8km/h 96% 0in /  0.0mm 0 W/m2
00:26 50.4 °F /  10.2 °C 49.3 °F /  9.6 °C 29.6in /  1002.4hPa East 2mph /  3.2km/h 2mph /  3.2km/h 96% 0in /  0.0mm 0 W/m2
00:31 50.4 °F /  10.2 °C 49.3 °F /  9.6 °C 29.6in /  1002.4hPa Calm   2mph /  3.2km/h 96% 0in /  0.0mm 0 W/m2
00:36 50.4 °F /  10.2 °C 49.3 °F /  9.6 °C 29.6in /  1002.4hPa ENE 0.9mph /  1.4km/h 2mph /  3.2km/h 96% 0in /  0.0mm 0 W/m2
00:41 50.4 °F /  10.2 °C 49.3 °F /  9.6 °C 29.6in /  1002.0hPa Calm   1mph /  1.6km/h 96% 0in /  0.0mm 0 W/m2
00:46 50.4 °F /  10.2 °C 49.3 °F /  9.6 °C 29.6in /  1002.0hPa ENE 0.9mph /  1.4km/h 2mph /  3.2km/h 96% 0in /  0.0mm 0 W/m2
00:51 50.4 °F /  10.2 °C 49.3 °F /  9.6 °C 29.6in /  1002.0hPa Calm   2mph /  3.2km/h 96% 0in /  0.0mm 0 W/m2
00:56 50.4 °F /  10.2 °C 49.3 °F /  9.6 °C 29.6in /  1002.0hPa Calm   1mph /  1.6km/h 96% 0in /  0.0mm 0 W/m2
01:01 50.4 °F /  10.2 °C 49.3 °F /  9.6 °C 29.6in /  1002.0hPa Calm     96% 0in /  0.0mm 0 W/m2
01:06 50.4 °F /  10.2 °C 49.3 °F /  9.6 °C 29.6in /  1002.0hPa East 0.9mph /  1.4km/h 3mph /  4.8km/h 96% 0in /  0.0mm 0 W/m2
01:11 50.4 °F /  10.2 °C 49.3 °F /  9.6 °C 29.6in /  1002.0hPa Calm     96% 0in /  0.0mm 0 W/m2
01:16 50.4 °F /  10.2 °C 49.3 °F /  9.6 °C 29.6in /  1002.0hPa East 0.9mph /  1.4km/h 1mph /  1.6km/h 96% 0.01in /  0.2mm 0 W/m2
01:21 50.4 °F /  10.2 °C 49.3 °F /  9.6 °C 29.6in /  1002.0hPa East 0.9mph /  1.4km/h 2mph /  3.2km/h 96% 0.01in /  0.2mm 0 W/m2
01:26 50.4 °F /  10.2 °C 49.3 °F /  9.6 °C 29.6in /  1002.0hPa NE 2mph /  3.2km/h 3mph /  4.8km/h 96% 0.01in /  0.2mm 0 W/m2
01:31 50.4 °F /  10.2 °C 49.3 °F /  9.6 °C 29.6in /  1002.0hPa Calm     96% 0.01in /  0.2mm 0 W/m2
01:36 50.4 °F /  10.2 °C 49.3 °F /  9.6 °C 29.6in /  1002.0hPa Calm   2mph /  3.2km/h 96% 0.01in /  0.2mm 0 W/m2
01:41 50.4 °F /  10.2 °C 49.3 °F /  9.6 °C 29.6in /  1002.0hPa East 2mph /  3.2km/h 2mph /  3.2km/h 96% 0.01in /  0.2mm 0 W/m2
01:46 50.4 °F /  10.2 °C 49.3 °F /  9.6 °C 29.6in /  1002.0hPa Calm   2mph /  3.2km/h 96% 0.02in /  0.5mm 0 W/m2
01:51 50.5 °F /  10.3 °C 49.5 °F /  9.7 °C 29.6in /  1002.0hPa NE 2mph /  3.2km/h 2mph /  3.2km/h 96% 0.03in /  0.8mm 0 W/m2
01:56 50.4 °F /  10.2 °C 49.3 °F /  9.6 °C 29.6in /  1002.0hPa Calm     96% 0.04in /  1.0mm 0 W/m2
02:01 50.4 °F /  10.2 °C 49.3 °F /  9.6 °C 29.6in /  1002.4hPa NE 2mph /  3.2km/h 2mph /  3.2km/h 96% 0.04in /  1.0mm 0 W/m2
02:06 50.4 °F /  10.2 °C 49.3 °F /  9.6 °C 29.6in /  1002.7hPa WNW 2mph /  3.2km/h 9mph /  14.5km/h 96% 0.05in /  1.3mm 0 W/m2
02:11 50.4 °F /  10.2 °C 49.3 °F /  9.6 °C 29.6in /  1002.7hPa South 0.9mph /  1.4km/h 4mph /  6.4km/h 96% 0.04in /  1.0mm 0 W/m2
02:16 50.4 °F /  10.2 °C 49.3 °F /  9.6 °C 29.6in /  1002.7hPa Calm   3mph /  4.8km/h 96% 0.04in /  1.0mm 0 W/m2
02:21 50.2 °F /  10.1 °C 49.1 °F /  9.5 °C 29.6in /  1002.7hPa NNW 0.9mph /  1.4km/h 3mph /  4.8km/h 96% 0.05in /  1.3mm 0 W/m2
02:26 50.2 °F /  10.1 °C 48.7 °F /  9.3 °C 29.6in /  1002.4hPa ENE 0.9mph /  1.4km/h 2mph /  3.2km/h 95% 0.05in /  1.3mm 0 W/m2
02:31 50 °F /  10 °C 48.6 °F /  9.2 °C 29.6in /  1002.4hPa SE 2.9mph /  4.7km/h 3mph /  4.8km/h 95% 0.05in /  1.3mm 0 W/m2
02:36 49.8 °F /  9.9 °C 48.4 °F /  9.1 °C 29.6in /  1002.4hPa Calm   3mph /  4.8km/h 95% 0.06in /  1.5mm 0 W/m2
02:41 49.8 °F /  9.9 °C 48.4 °F /  9.1 °C 29.6in /  1002.4hPa NW 0.9mph /  1.4km/h 2mph /  3.2km/h 95% 0.06in /  1.5mm 0 W/m2
02:46 49.8 °F /  9.9 °C 48.2 °F /  9 °C 29.6in /  1002.4hPa NNW 0.9mph /  1.4km/h 2mph /  3.2km/h 94% 0.05in /  1.3mm 0 W/m2
02:51 49.8 °F /  9.9 °C 48.2 °F /  9 °C 29.6in /  1002.4hPa Calm   2mph /  3.2km/h 94% 0.02in /  0.5mm 0 W/m2
02:56 49.6 °F /  9.8 °C 48 °F /  8.9 °C 29.6in /  1002.4hPa West 0.9mph /  1.4km/h 2mph /  3.2km/h 94% 0.02in /  0.5mm 0 W/m2
03:02 49.8 °F /  9.9 °C 48.2 °F /  9 °C 29.6in /  1002.4hPa Calm   2mph /  3.2km/h 94% 0.02in /  0.5mm 0 W/m2
03:07 49.8 °F /  9.9 °C 48.2 °F /  9 °C 29.6in /  1002.4hPa WNW 2mph /  3.2km/h 2mph /  3.2km/h 94% 0.02in /  0.5mm 0 W/m2
03:12 49.8 °F /  9.9 °C 48.2 °F /  9 °C 29.6in /  1002.4hPa NW 2mph /  3.2km/h 4mph /  6.4km/h 94% 0.02in /  0.5mm 0 W/m2
03:17 50 °F /  10 °C 48.6 °F /  9.2 °C 29.6in /  1002.4hPa Calm   3mph /  4.8km/h 95% 0.02in /  0.5mm 0 W/m2
03:22 50 °F /  10 °C 48.6 °F /  9.2 °C 29.6in /  1002.4hPa WNW 2mph /  3.2km/h 3mph /  4.8km/h 95% 0.01in /  0.2mm 0 W/m2
03:27 50 °F /  10 °C 48.6 °F /  9.2 °C 29.6in /  1002.4hPa NNW 2mph /  3.2km/h 2mph /  3.2km/h 95% 0.01in /  0.2mm 0 W/m2
03:32 50.2 °F /  10.1 °C 48.7 °F /  9.3 °C 29.6in /  1002.4hPa Calm   3mph /  4.8km/h 95% 0in /  0.0mm 0 W/m2
03:37 50.2 °F /  10.1 °C 48.6 °F /  9.2 °C 29.6in /  1002.4hPa NNW 2mph /  3.2km/h 3mph /  4.8km/h 94% 0in /  0.0mm 0 W/m2
03:42 50.2 °F /  10.1 °C 48.6 °F /  9.2 °C 29.6in /  1002.0hPa NW 0.9mph /  1.4km/h 4mph /  6.4km/h 94% 0in /  0.0mm 0 W/m2
03:47 50.2 °F /  10.1 °C 48.6 °F /  9.2 °C 29.6in /  1001.7hPa Calm     94% 0in /  0.0mm 0 W/m2
03:52 50 °F /  10 °C 48.4 °F /  9.1 °C 29.6in /  1002.0hPa Calm   4mph /  6.4km/h 94% 0in /  0.0mm 0 W/m2
03:57 49.8 °F /  9.9 °C 48.2 °F /  9 °C 29.6in /  1001.7hPa North 4.9mph /  7.9km/h 5mph /  8km/h 94% 0in /  0.0mm 0 W/m2
04:02 49.8 °F /  9.9 °C 48.2 °F /  9 °C 29.6in /  1001.7hPa Calm     94% 0in /  0.0mm 0 W/m2
04:07 49.8 °F /  9.9 °C 48.2 °F /  9 °C 29.6in /  1002.0hPa Calm   1mph /  1.6km/h 94% 0in /  0.0mm 0 W/m2
04:12 49.8 °F /  9.9 °C 48.2 °F /  9 °C 29.6in /  1002.4hPa NE 2mph /  3.2km/h 2mph /  3.2km/h 94% 0in /  0.0mm 0 W/m2
04:17 49.6 °F /  9.8 °C 48 °F /  8.9 °C 29.6in /  1002.0hPa Calm   2mph /  3.2km/h 94% 0in /  0.0mm 0 W/m2
04:22 49.6 °F /  9.8 °C 48 °F /  8.9 °C 29.6in /  1002.4hPa WNW 4mph /  6.4km/h 4mph /  6.4km/h 94% 0in /  0.0mm 0 W/m2
04:27 49.6 °F /  9.8 °C 48 °F /  8.9 °C 29.6in /  1002.0hPa Calm   2mph /  3.2km/h 94% 0in /  0.0mm 0 W/m2
04:32 49.5 °F /  9.7 °C 47.8 °F /  8.8 °C 29.6in /  1002.4hPa SW 2.9mph /  4.7km/h 8mph /  12.9km/h 94% 0in /  0.0mm 0 W/m2
04:37 49.5 °F /  9.7 °C 47.8 °F /  8.8 °C 29.6in /  1002.0hPa WNW 2mph /  3.2km/h 3mph /  4.8km/h 94% 0in /  0.0mm 0 W/m2
04:42 49.5 °F /  9.7 °C 47.8 °F /  8.8 °C 29.6in /  1002.0hPa NW 0.9mph /  1.4km/h 6mph /  9.7km/h 94% 0in /  0.0mm 0 W/m2
04:47 49.3 °F /  9.6 °C 47.7 °F /  8.7 °C 29.6in /  1002.4hPa Calm   3mph /  4.8km/h 94% 0in /  0.0mm 0 W/m2
04:52 49.3 °F /  9.6 °C 47.7 °F /  8.7 °C 29.6in /  1002.0hPa NE 0.9mph /  1.4km/h 3mph /  4.8km/h 94% 0in /  0.0mm 0 W/m2
04:57 49.3 °F /  9.6 °C 47.7 °F /  8.7 °C 29.6in /  1002.0hPa West 2mph /  3.2km/h 2mph /  3.2km/h 94% 0in /  0.0mm 0 W/m2
05:02 49.3 °F /  9.6 °C 47.7 °F /  8.7 °C 29.6in /  1002.0hPa NW 2mph /  3.2km/h 3mph /  4.8km/h 94% 0in /  0.0mm 0 W/m2
05:07 49.3 °F /  9.6 °C 47.7 °F /  8.7 °C 29.6in /  1002.4hPa West 0.9mph /  1.4km/h 2mph /  3.2km/h 94% 0in /  0.0mm 0 W/m2
05:12 49.3 °F /  9.6 °C 47.3 °F /  8.5 °C 29.6in /  1002.7hPa Calm   1mph /  1.6km/h 93% 0in /  0.0mm 0 W/m2
05:17 49.3 °F /  9.6 °C 47.3 °F /  8.5 °C 29.6in /  1002.0hPa Calm   2mph /  3.2km/h 93% 0in /  0.0mm 0 W/m2
05:22 49.1 °F /  9.5 °C 47.1 °F /  8.4 °C 29.6in /  1002.0hPa Calm   1mph /  1.6km/h 93% 0in /  0.0mm 0 W/m2
05:27 48.9 °F /  9.4 °C 46.9 °F /  8.3 °C 29.6in /  1002.0hPa Calm   2mph /  3.2km/h 93% 0in /  0.0mm 0 W/m2
05:32 48.7 °F /  9.3 °C 46.8 °F /  8.2 °C 29.6in /  1002.0hPa ENE 0.9mph /  1.4km/h 3mph /  4.8km/h 93% 0in /  0.0mm 0 W/m2
05:37 48.6 °F /  9.2 °C 46.9 °F /  8.3 °C 29.6in /  1002.0hPa Calm     94% 0in /  0.0mm 0 W/m2
05:42 48.6 °F /  9.2 °C 46.9 °F /  8.3 °C 29.6in /  1002.4hPa Calm   3mph /  4.8km/h 94% 0in /  0.0mm 0 W/m2
05:47 48.4 °F /  9.1 °C 46.8 °F /  8.2 °C 29.6in /  1002.7hPa Calm   1mph /  1.6km/h 94% 0in /  0.0mm 0 W/m2
05:53 48.4 °F /  9.1 °C 46.8 °F /  8.2 °C 29.6in /  1003.0hPa WNW 2mph /  3.2km/h 2mph /  3.2km/h 94% 0in /  0.0mm 0 W/m2
05:58 48.6 °F /  9.2 °C 46.9 °F /  8.3 °C 29.6in /  1003.0hPa NW 0.9mph /  1.4km/h 1mph /  1.6km/h 94% 0in /  0.0mm 0 W/m2
06:03 48.6 °F /  9.2 °C 46.9 °F /  8.3 °C 29.6in /  1003.0hPa WNW 0.9mph /  1.4km/h 5mph /  8km/h 94% 0in /  0.0mm 0 W/m2
06:08 48.6 °F /  9.2 °C 46.9 °F /  8.3 °C 29.6in /  1003.4hPa West 2mph /  3.2km/h 8mph /  12.9km/h 94% 0in /  0.0mm 0 W/m2
06:13 48.6 °F /  9.2 °C 46.9 °F /  8.3 °C 29.6in /  1003.4hPa Calm   3mph /  4.8km/h 94% 0in /  0.0mm 0 W/m2
06:18 48.7 °F /  9.3 °C 47.1 °F /  8.4 °C 29.6in /  1003.0hPa WNW 2mph /  3.2km/h 8mph /  12.9km/h 94% 0in /  0.0mm 0 W/m2
06:23 48.7 °F /  9.3 °C 46.8 °F /  8.2 °C 29.6in /  1003.0hPa Calm   2mph /  3.2km/h 93% 0in /  0.0mm 0 W/m2
06:28 48.7 °F /  9.3 °C 46.8 °F /  8.2 °C 29.6in /  1003.0hPa WNW 0.9mph /  1.4km/h 5mph /  8km/h 93% 0in /  0.0mm 0 W/m2
06:33 48.7 °F /  9.3 °C 46.8 °F /  8.2 °C 29.6in /  1002.7hPa Calm   2mph /  3.2km/h 93% 0in /  0.0mm 0 W/m2
06:38 48.6 °F /  9.2 °C 46.6 °F /  8.1 °C 29.6in /  1003.0hPa NW 0.9mph /  1.4km/h 2mph /  3.2km/h 93% 0in /  0.0mm 0 W/m2
06:43 48.6 °F /  9.2 °C 46.6 °F /  8.1 °C 29.6in /  1003.0hPa WNW 2mph /  3.2km/h 4mph /  6.4km/h 93% 0in /  0.0mm 0 W/m2
06:48 48.6 °F /  9.2 °C 46.6 °F /  8.1 °C 29.6in /  1003.0hPa NE 2.9mph /  4.7km/h 3mph /  4.8km/h 93% 0in /  0.0mm 0 W/m2
06:53 48.4 °F /  9.1 °C 46.4 °F /  8 °C 29.6in /  1003.4hPa NW 0.9mph /  1.4km/h 5mph /  8km/h 93% 0in /  0.0mm 0 W/m2
06:58 48.4 °F /  9.1 °C 46.8 °F /  8.2 °C 29.6in /  1003.4hPa North 0.9mph /  1.4km/h 3mph /  4.8km/h 94% 0in /  0.0mm 0 W/m2
07:03 48.4 °F /  9.1 °C 46.4 °F /  8 °C 29.6in /  1003.0hPa ENE 0.9mph /  1.4km/h 2mph /  3.2km/h 93% 0in /  0.0mm 0 W/m2
07:08 48.4 °F /  9.1 °C 46.4 °F /  8 °C 29.6in /  1003.0hPa Calm   2mph /  3.2km/h 93% 0in /  0.0mm 0 W/m2
07:13 48.4 °F /  9.1 °C 46.8 °F /  8.2 °C 29.6in /  1002.7hPa North 2mph /  3.2km/h 3mph /  4.8km/h 94% 0in /  0.0mm 0 W/m2
07:18 48.4 °F /  9.1 °C 46.4 °F /  8 °C 29.6in /  1002.7hPa NE 0.9mph /  1.4km/h 3mph /  4.8km/h 93% 0in /  0.0mm 0 W/m2
07:23 48.4 °F /  9.1 °C 46.4 °F /  8 °C 29.6in /  1002.7hPa NW 2mph /  3.2km/h 3mph /  4.8km/h 93% 0in /  0.0mm 0 W/m2
07:28 48.2 °F /  9 °C 46.2 °F /  7.9 °C 29.6in /  1002.7hPa ENE 2mph /  3.2km/h 2mph /  3.2km/h 93% 0in /  0.0mm 0 W/m2
07:33 48.2 °F /  9 °C 46.2 °F /  7.9 °C 29.6in /  1003.0hPa Calm   3mph /  4.8km/h 93% 0in /  0.0mm 5 W/m2
07:38 48 °F /  8.9 °C 46 °F /  7.8 °C 29.6in /  1003.4hPa NE 2.9mph /  4.7km/h 3mph /  4.8km/h 93% 0in /  0.0mm 7 W/m2
07:43 48.2 °F /  9 °C 46.6 °F /  8.1 °C 29.6in /  1003.4hPa East 2.9mph /  4.7km/h 3mph /  4.8km/h 94% 0in /  0.0mm 9 W/m2
07:48 48.4 °F /  9.1 °C 46.8 °F /  8.2 °C 29.6in /  1003.4hPa Calm   5mph /  8km/h 94% 0in /  0.0mm 9 W/m2
07:53 48.4 °F /  9.1 °C 46.8 °F /  8.2 °C 29.6in /  1003.4hPa Calm   3mph /  4.8km/h 94% 0in /  0.0mm 9 W/m2
07:58 48.4 °F /  9.1 °C 46.8 °F /  8.2 °C 29.6in /  1003.0hPa East 0.9mph /  1.4km/h 3mph /  4.8km/h 94% 0in /  0.0mm 7 W/m2
08:03 48.4 °F /  9.1 °C 46.8 °F /  8.2 °C 29.6in /  1003.4hPa NW 2.9mph /  4.7km/h 3mph /  4.8km/h 94% 0in /  0.0mm 12 W/m2
08:08 48.4 °F /  9.1 °C 46.4 °F /  8 °C 29.6in /  1003.0hPa WNW 0.9mph /  1.4km/h 3mph /  4.8km/h 93% 0in /  0.0mm 19 W/m2
08:13 48.4 °F /  9.1 °C 46.4 °F /  8 °C 29.6in /  1003.0hPa Calm   4mph /  6.4km/h 93% 0in /  0.0mm 25 W/m2
08:18 48.4 °F /  9.1 °C 46.4 °F /  8 °C 29.6in /  1003.0hPa East 2.9mph /  4.7km/h 3mph /  4.8km/h 93% 0in /  0.0mm 35 W/m2
08:23 48.4 °F /  9.1 °C 46.4 °F /  8 °C 29.6in /  1003.4hPa NNW 0.9mph /  1.4km/h 4mph /  6.4km/h 93% 0in /  0.0mm 28 W/m2
08:28 48.6 °F /  9.2 °C 46.6 °F /  8.1 °C 29.6in /  1003.4hPa Calm   2mph /  3.2km/h 93% 0in /  0.0mm 40 W/m2
08:33 48.4 °F /  9.1 °C 46.4 °F /  8 °C 29.6in /  1003.7hPa Calm   4mph /  6.4km/h 93% 0in /  0.0mm 35 W/m2
08:38 48.6 °F /  9.2 °C 46.6 °F /  8.1 °C 29.6in /  1003.7hPa NE 2.9mph /  4.7km/h 4mph /  6.4km/h 93% 0in /  0.0mm 37 W/m2
08:43 48.6 °F /  9.2 °C 46.6 °F /  8.1 °C 29.7in /  1004.1hPa Calm   3mph /  4.8km/h 93% 0in /  0.0mm 30 W/m2
08:48 48.6 °F /  9.2 °C 46.6 °F /  8.1 °C 29.7in /  1004.1hPa NE 0.9mph /  1.4km/h 4mph /  6.4km/h 93% 0in /  0.0mm 47 W/m2
08:53 48.6 °F /  9.2 °C 46.6 °F /  8.1 °C 29.7in /  1004.1hPa North 0.9mph /  1.4km/h 2mph /  3.2km/h 93% 0in /  0.0mm 49 W/m2
08:58 48.7 °F /  9.3 °C 46.8 °F /  8.2 °C 29.7in /  1004.1hPa NW 0.9mph /  1.4km/h 3mph /  4.8km/h 93% 0in /  0.0mm 54 W/m2
09:03 48.7 °F /  9.3 °C 46.6 °F /  8.1 °C 29.7in /  1004.1hPa North 0.9mph /  1.4km/h 2mph /  3.2km/h 92% 0in /  0.0mm 70 W/m2
09:08 48.9 °F /  9.4 °C 46.8 °F /  8.2 °C 29.7in /  1004.1hPa North 0.9mph /  1.4km/h 4mph /  6.4km/h 92% 0in /  0.0mm 62 W/m2
09:13 48.9 °F /  9.4 °C 46.8 °F /  8.2 °C 29.7in /  1004.4hPa ENE 2.9mph /  4.7km/h 5mph /  8km/h 92% 0in /  0.0mm 67 W/m2
09:18 48.9 °F /  9.4 °C 46.8 °F /  8.2 °C 29.7in /  1004.4hPa NW 2mph /  3.2km/h 4mph /  6.4km/h 92% 0in /  0.0mm 77 W/m2
09:23 48.9 °F /  9.4 °C 46.4 °F /  8 °C 29.7in /  1004.4hPa NNE 2.9mph /  4.7km/h 3mph /  4.8km/h 91% 0in /  0.0mm 83 W/m2
09:28 49.1 °F /  9.5 °C 46.6 °F /  8.1 °C 29.7in /  1004.4hPa WNW 2.9mph /  4.7km/h 4mph /  6.4km/h 91% 0in /  0.0mm 97 W/m2
09:33 49.3 °F /  9.6 °C 46.8 °F /  8.2 °C 29.7in /  1004.4hPa NW 2mph /  3.2km/h 2mph /  3.2km/h 91% 0in /  0.0mm 113 W/m2
09:38 49.3 °F /  9.6 °C 46.8 °F /  8.2 °C 29.7in /  1004.4hPa NNW 2.9mph /  4.7km/h 5mph /  8km/h 91% 0in /  0.0mm 113 W/m2
09:43 49.3 °F /  9.6 °C 46.8 °F /  8.2 °C 29.7in /  1004.1hPa North 0.9mph /  1.4km/h 3mph /  4.8km/h 91% 0in /  0.0mm 120 W/m2
09:48 49.3 °F /  9.6 °C 46.4 °F /  8 °C 29.7in /  1004.4hPa WNW 2.9mph /  4.7km/h 4mph /  6.4km/h 90% 0in /  0.0mm 123 W/m2
09:53 49.5 °F /  9.7 °C 46.6 °F /  8.1 °C 29.7in /  1004.4hPa NNW 2.9mph /  4.7km/h 5mph /  8km/h 90% 0in /  0.0mm 105 W/m2
09:58 49.5 °F /  9.7 °C 46.6 °F /  8.1 °C 29.7in /  1004.4hPa WNW 0.9mph /  1.4km/h 3mph /  4.8km/h 90% 0in /  0.0mm 109 W/m2
10:03 49.6 °F /  9.8 °C 46.8 °F /  8.2 °C 29.7in /  1004.4hPa Calm   3mph /  4.8km/h 90% 0in /  0.0mm 125 W/m2
10:08 49.6 °F /  9.8 °C 46.8 °F /  8.2 °C 29.7in /  1004.4hPa NW 4.9mph /  7.9km/h 9mph /  14.5km/h 90% 0in /  0.0mm 121 W/m2
10:13 49.6 °F /  9.8 °C 46.6 °F /  8.1 °C 29.7in /  1004.1hPa WSW 0.9mph /  1.4km/h 7mph /  11.3km/h 89% 0in /  0.0mm 120 W/m2
10:19 49.6 °F /  9.8 °C 46.6 °F /  8.1 °C 29.7in /  1004.4hPa WNW 2mph /  3.2km/h 2mph /  3.2km/h 89% 0in /  0.0mm 86 W/m2
10:24 49.6 °F /  9.8 °C 46.2 °F /  7.9 °C 29.7in /  1004.4hPa West 4mph /  6.4km/h 7mph /  11.3km/h 88% 0in /  0.0mm 98 W/m2
10:29 49.8 °F /  9.9 °C 46.8 °F /  8.2 °C 29.7in /  1004.4hPa West 2mph /  3.2km/h 2mph /  3.2km/h 89% 0in /  0.0mm 74 W/m2
10:34 49.8 °F /  9.9 °C 46.4 °F /  8 °C 29.7in /  1004.4hPa West 4mph /  6.4km/h 7mph /  11.3km/h 88% 0in /  0.0mm 109 W/m2
10:39 49.8 °F /  9.9 °C 46.4 °F /  8 °C 29.7in /  1004.4hPa NW 0.9mph /  1.4km/h 3mph /  4.8km/h 88% 0in /  0.0mm 125 W/m2
10:44 49.8 °F /  9.9 °C 46 °F /  7.8 °C 29.7in /  1004.4hPa WNW 6.9mph /  11.1km/h 9mph /  14.5km/h 87% 0in /  0.0mm 113 W/m2
10:49 49.8 °F /  9.9 °C 46 °F /  7.8 °C 29.7in /  1004.4hPa NNE 2mph /  3.2km/h 4mph /  6.4km/h 87% 0in /  0.0mm 127 W/m2
10:54 49.8 °F /  9.9 °C 45.5 °F /  7.5 °C 29.7in /  1004.4hPa West 2.9mph /  4.7km/h 12mph /  19.3km/h 85% 0in /  0.0mm 139 W/m2
10:59 49.8 °F /  9.9 °C 45.5 °F /  7.5 °C 29.7in /  1004.1hPa West 8.9mph /  14.3km/h 12mph /  19.3km/h 85% 0in /  0.0mm 107 W/m2
11:04 49.8 °F /  9.9 °C 45.5 °F /  7.5 °C 29.7in /  1004.1hPa SW 4mph /  6.4km/h 8mph /  12.9km/h 85% 0in /  0.0mm 97 W/m2
11:09 49.8 °F /  9.9 °C 45.5 °F /  7.5 °C 29.7in /  1004.4hPa Calm   1mph /  1.6km/h 85% 0in /  0.0mm 83 W/m2
11:14 49.8 °F /  9.9 °C 45.9 °F /  7.7 °C 29.7in /  1004.4hPa WSW 0.9mph /  1.4km/h 3mph /  4.8km/h 86% 0in /  0.0mm 127 W/m2
11:19 49.8 °F /  9.9 °C 45.5 °F /  7.5 °C 29.7in /  1004.4hPa ENE 0.9mph /  1.4km/h 4mph /  6.4km/h 85% 0in /  0.0mm 181 W/m2
11:24 50.2 °F /  10.1 °C 45.9 °F /  7.7 °C 29.7in /  1004.1hPa NNW 2.9mph /  4.7km/h 4mph /  6.4km/h 85% 0in /  0.0mm 174 W/m2
11:29 50.5 °F /  10.3 °C 46.2 °F /  7.9 °C 29.7in /  1004.1hPa NNW 2mph /  3.2km/h 5mph /  8km/h 85% 0in /  0.0mm 190 W/m2
11:34 50.9 °F /  10.5 °C 46.2 °F /  7.9 °C 29.7in /  1004.1hPa WNW 2mph /  3.2km/h 2mph /  3.2km/h 84% 0in /  0.0mm 221 W/m2
11:39 51.3 °F /  10.7 °C 46.2 °F /  7.9 °C 29.7in /  1004.4hPa SW 2mph /  3.2km/h 3mph /  4.8km/h 83% 0in /  0.0mm 206 W/m2
11:44 51.4 °F /  10.8 °C 46.2 °F /  7.9 °C 29.7in /  1004.4hPa SE 0.9mph /  1.4km/h 3mph /  4.8km/h 82% 0in /  0.0mm 120 W/m2
11:49 51.6 °F /  10.9 °C 46 °F /  7.8 °C 29.7in /  1004.7hPa WNW 2.9mph /  4.7km/h 6mph /  9.7km/h 81% 0in /  0.0mm 62 W/m2
11:54 51.3 °F /  10.7 °C 45 °F /  7.2 °C 29.7in /  1004.7hPa WNW 4mph /  6.4km/h 11mph /  17.7km/h 79% 0in /  0.0mm 97 W/m2
11:59 50.9 °F /  10.5 °C 44.6 °F /  7 °C 29.7in /  1004.4hPa SW 2.9mph /  4.7km/h 10mph /  16.1km/h 79% 0in /  0.0mm 88 W/m2
12:04 50.7 °F /  10.4 °C 44.4 °F /  6.9 °C 29.7in /  1004.4hPa West 4mph /  6.4km/h 11mph /  17.7km/h 79% 0in /  0.0mm 114 W/m2
12:09 50.7 °F /  10.4 °C 44.4 °F /  6.9 °C 29.7in /  1004.4hPa NW 0.9mph /  1.4km/h 11mph /  17.7km/h 79% 0in /  0.0mm 121 W/m2
12:14 51.1 °F /  10.6 °C 44.8 °F /  7.1 °C 29.7in /  1004.4hPa NW 0.9mph /  1.4km/h 4mph /  6.4km/h 79% 0in /  0.0mm 120 W/m2
12:19 51.1 °F /  10.6 °C 44.1 °F /  6.7 °C 29.7in /  1004.4hPa NW 2.9mph /  4.7km/h 11mph /  17.7km/h 77% 0in /  0.0mm 139 W/m2
12:24 51.3 °F /  10.7 °C 44.2 °F /  6.8 °C 29.7in /  1004.4hPa NNW 2.9mph /  4.7km/h 7mph /  11.3km/h 77% 0in /  0.0mm 125 W/m2
12:29 51.4 °F /  10.8 °C 43.7 °F /  6.5 °C 29.7in /  1004.4hPa NW 2mph /  3.2km/h 8mph /  12.9km/h 75% 0in /  0.0mm 102 W/m2
12:34 52 °F /  11.1 °C 44.6 °F /  7 °C 29.7in /  1004.4hPa West 0.9mph /  1.4km/h 9mph /  14.5km/h 76% 0in /  0.0mm 128 W/m2
12:39 52 °F /  11.1 °C 44.2 °F /  6.8 °C 29.7in /  1004.4hPa Calm   3mph /  4.8km/h 75% 0in /  0.0mm 125 W/m2
12:44 52 °F /  11.1 °C 44.2 °F /  6.8 °C 29.7in /  1004.4hPa WNW 2mph /  3.2km/h 9mph /  14.5km/h 75% 0in /  0.0mm 118 W/m2
12:49 52 °F /  11.1 °C 44.2 °F /  6.8 °C 29.7in /  1004.4hPa West 2.9mph /  4.7km/h 4mph /  6.4km/h 75% 0in /  0.0mm 88 W/m2
12:54 51.6 °F /  10.9 °C 44.2 °F /  6.8 °C 29.7in /  1004.1hPa WNW 2.9mph /  4.7km/h 5mph /  8km/h 76% 0in /  0.0mm 109 W/m2
12:59 51.6 °F /  10.9 °C 43.9 °F /  6.6 °C 29.7in /  1004.1hPa WNW 2.9mph /  4.7km/h 7mph /  11.3km/h 75% 0in /  0.0mm 86 W/m2
13:04 51.4 °F /  10.8 °C 44.1 °F /  6.7 °C 29.7in /  1004.1hPa Calm   3mph /  4.8km/h 76% 0in /  0.0mm 81 W/m2
13:09 51.4 °F /  10.8 °C 44.4 °F /  6.9 °C 29.7in /  1004.1hPa West 2mph /  3.2km/h 7mph /  11.3km/h 77% 0in /  0.0mm 134 W/m2
13:14 51.4 °F /  10.8 °C 44.8 °F /  7.1 °C 29.7in /  1004.4hPa West 2mph /  3.2km/h 2mph /  3.2km/h 78% 0in /  0.0mm 137 W/m2
13:19 51.6 °F /  10.9 °C 45 °F /  7.2 °C 29.7in /  1004.4hPa WSW 0.9mph /  1.4km/h 7mph /  11.3km/h 78% 0in /  0.0mm 97 W/m2
13:24 52.2 °F /  11.2 °C 44.8 °F /  7.1 °C 29.7in /  1004.4hPa WNW 4.9mph /  7.9km/h 5mph /  8km/h 76% 0in /  0.0mm 97 W/m2
13:29 52.5 °F /  11.4 °C 44.8 °F /  7.1 °C 29.7in /  1004.4hPa West 0.9mph /  1.4km/h 4mph /  6.4km/h 75% 0in /  0.0mm 241 W/m2
13:34 52.9 °F /  11.6 °C 44.8 °F /  7.1 °C 29.7in /  1004.1hPa West 2mph /  3.2km/h 5mph /  8km/h 74% 0in /  0.0mm 144 W/m2
13:39 53.2 °F /  11.8 °C 45.5 °F /  7.5 °C 29.7in /  1004.1hPa South 2mph /  3.2km/h 6mph /  9.7km/h 75% 0in /  0.0mm 295 W/m2
13:44 53.8 °F /  12.1 °C 45 °F /  7.2 °C 29.7in /  1004.1hPa Calm   6mph /  9.7km/h 72% 0in /  0.0mm 146 W/m2
13:49 54 °F /  12.2 °C 45.1 °F /  7.3 °C 29.7in /  1004.1hPa WNW 15mph /  24.1km/h 16mph /  25.7km/h 72% 0in /  0.0mm 185 W/m2
13:54 53.8 °F /  12.1 °C 44.6 °F /  7 °C 29.7in /  1004.4hPa NW 0.9mph /  1.4km/h 9mph /  14.5km/h 71% 0in /  0.0mm 81 W/m2
13:59 53.4 °F /  11.9 °C 44.2 °F /  6.8 °C 29.7in /  1004.1hPa Calm   16mph /  25.7km/h 71% 0in /  0.0mm 104 W/m2
14:04 53.2 °F /  11.8 °C 44.1 °F /  6.7 °C 29.7in /  1004.1hPa NW 2.9mph /  4.7km/h 9mph /  14.5km/h 71% 0in /  0.0mm 130 W/m2
14:09 53.2 °F /  11.8 °C 44.1 °F /  6.7 °C 29.7in /  1004.1hPa WNW 0.9mph /  1.4km/h 6mph /  9.7km/h 71% 0in /  0.0mm 114 W/m2
14:14 53.2 °F /  11.8 °C 44.4 °F /  6.9 °C 29.7in /  1004.1hPa WNW 0.9mph /  1.4km/h 7mph /  11.3km/h 72% 0in /  0.0mm 116 W/m2
14:19 53.2 °F /  11.8 °C 44.8 °F /  7.1 °C 29.7in /  1004.1hPa NW 4.9mph /  7.9km/h 5mph /  8km/h 73% 0in /  0.0mm 98 W/m2
14:24 53.4 °F /  11.9 °C 45.3 °F /  7.4 °C 29.7in /  1004.1hPa WSW 0.9mph /  1.4km/h 3mph /  4.8km/h 74% 0in /  0.0mm 97 W/m2
14:29 53.4 °F /  11.9 °C 45 °F /  7.2 °C 29.7in /  1004.1hPa Calm   5mph /  8km/h 73% 0in /  0.0mm 132 W/m2
14:34 53.4 °F /  11.9 °C 45 °F /  7.2 °C 29.7in /  1004.1hPa NW 4mph /  6.4km/h 7mph /  11.3km/h 73% 0in /  0.0mm 121 W/m2
14:39 53.4 °F /  11.9 °C 45 °F /  7.2 °C 29.7in /  1004.1hPa WNW 2.9mph /  4.7km/h 3mph /  4.8km/h 73% 0in /  0.0mm 134 W/m2
14:44 53.4 °F /  11.9 °C 45 °F /  7.2 °C 29.7in /  1004.1hPa WSW 2mph /  3.2km/h 4mph /  6.4km/h 73% 0in /  0.0mm 130 W/m2
14:49 53.4 °F /  11.9 °C 44.6 °F /  7 °C 29.7in /  1004.4hPa WNW 4mph /  6.4km/h 9mph /  14.5km/h 72% 0in /  0.0mm 146 W/m2
14:54 53.6 °F /  12 °C 44.4 °F /  6.9 °C 29.7in /  1004.4hPa WNW 2mph /  3.2km/h 10mph /  16.1km/h 71% 0in /  0.0mm 167 W/m2
14:59 53.8 °F /  12.1 °C 45 °F /  7.2 °C 29.7in /  1004.4hPa NW 4mph /  6.4km/h 4mph /  6.4km/h 72% 0in /  0.0mm 86 W/m2
15:04 53.6 °F /  12 °C 44.8 °F /  7.1 °C 29.7in /  1004.4hPa WNW 4mph /  6.4km/h 10mph /  16.1km/h 72% 0in /  0.0mm 155 W/m2
15:09 53.6 °F /  12 °C 44.8 °F /  7.1 °C 29.7in /  1004.4hPa WNW 2mph /  3.2km/h 7mph /  11.3km/h 72% 0in /  0.0mm 146 W/m2
15:14 53.8 °F /  12.1 °C 45 °F /  7.2 °C 29.7in /  1004.4hPa WSW 4mph /  6.4km/h 8mph /  12.9km/h 72% 0in /  0.0mm 100 W/m2
15:19 53.6 °F /  12 °C 44.4 °F /  6.9 °C 29.7in /  1004.4hPa NW 4mph /  6.4km/h 10mph /  16.1km/h 71% 0in /  0.0mm 113 W/m2
15:24 53.6 °F /  12 °C 44.1 °F /  6.7 °C 29.7in /  1004.7hPa NW 2.9mph /  4.7km/h 6mph /  9.7km/h 70% 0in /  0.0mm 83 W/m2
15:29 53.4 °F /  11.9 °C 44.2 °F /  6.8 °C 29.7in /  1004.4hPa NNW 4mph /  6.4km/h 4mph /  6.4km/h 71% 0in /  0.0mm 77 W/m2
15:34 53.4 °F /  11.9 °C 44.6 °F /  7 °C 29.7in /  1004.4hPa North 4mph /  6.4km/h 4mph /  6.4km/h 72% 0in /  0.0mm 91 W/m2
15:39 53.4 °F /  11.9 °C 44.6 °F /  7 °C 29.7in /  1004.4hPa WSW 2mph /  3.2km/h 7mph /  11.3km/h 72% 0in /  0.0mm 95 W/m2
15:44 53.2 °F /  11.8 °C 44.4 °F /  6.9 °C 29.7in /  1004.4hPa WNW 0.9mph /  1.4km/h 3mph /  4.8km/h 72% 0in /  0.0mm 95 W/m2
15:49 53.2 °F /  11.8 °C 44.8 °F /  7.1 °C 29.7in /  1004.4hPa WNW 0.9mph /  1.4km/h 7mph /  11.3km/h 73% 0in /  0.0mm 74 W/m2
15:54 53.2 °F /  11.8 °C 44.8 °F /  7.1 °C 29.7in /  1004.4hPa NW 0.9mph /  1.4km/h 2mph /  3.2km/h 73% 0in /  0.0mm 76 W/m2
15:59 53.2 °F /  11.8 °C 44.8 °F /  7.1 °C 29.7in /  1004.7hPa West 0.9mph /  1.4km/h 3mph /  4.8km/h 73% 0in /  0.0mm 79 W/m2
16:04 53.2 °F /  11.8 °C 45.1 °F /  7.3 °C 29.7in /  1004.4hPa East 0.9mph /  1.4km/h 4mph /  6.4km/h 74% 0in /  0.0mm 74 W/m2
16:09 53.2 °F /  11.8 °C 44.8 °F /  7.1 °C 29.7in /  1004.4hPa WSW 0.9mph /  1.4km/h 3mph /  4.8km/h 73% 0in /  0.0mm 74 W/m2
16:14 53.2 °F /  11.8 °C 44.8 °F /  7.1 °C 29.7in /  1004.4hPa West 2.9mph /  4.7km/h 9mph /  14.5km/h 73% 0in /  0.0mm 72 W/m2
16:19 53.1 °F /  11.7 °C 44.2 °F /  6.8 °C 29.7in /  1004.4hPa West 0.9mph /  1.4km/h 9mph /  14.5km/h 72% 0in /  0.0mm 60 W/m2
16:24 53.1 °F /  11.7 °C 44.2 °F /  6.8 °C 29.7in /  1004.4hPa Calm   3mph /  4.8km/h 72% 0in /  0.0mm 33 W/m2
16:29 52.9 °F /  11.6 °C 44.1 °F /  6.7 °C 29.7in /  1004.4hPa West 2mph /  3.2km/h 9mph /  14.5km/h 72% 0in /  0.0mm 23 W/m2
16:34 52.7 °F /  11.5 °C 44.2 °F /  6.8 °C 29.7in /  1004.7hPa NW 2mph /  3.2km/h 3mph /  4.8km/h 73% 0in /  0.0mm 26 W/m2
16:39 52.5 °F /  11.4 °C 44.1 °F /  6.7 °C 29.7in /  1004.7hPa WSW 2.9mph /  4.7km/h 9mph /  14.5km/h 73% 0in /  0.0mm 40 W/m2
16:44 52.5 °F /  11.4 °C 44.8 °F /  7.1 °C 29.7in /  1004.7hPa NE 0.9mph /  1.4km/h 2mph /  3.2km/h 75% 0in /  0.0mm 33 W/m2
16:49 52.3 °F /  11.3 °C 45 °F /  7.2 °C 29.7in /  1004.7hPa Calm   4mph /  6.4km/h 76% 0in /  0.0mm 30 W/m2
16:54 52.2 °F /  11.2 °C 44.4 °F /  6.9 °C 29.7in /  1004.7hPa SW 0.9mph /  1.4km/h 2mph /  3.2km/h 75% 0in /  0.0mm 23 W/m2
16:59 52 °F /  11.1 °C 45 °F /  7.2 °C 29.7in /  1004.4hPa Calm     77% 0in /  0.0mm 12 W/m2
17:04 51.4 °F /  10.8 °C 44.8 °F /  7.1 °C 29.7in /  1004.4hPa SW 0.9mph /  1.4km/h 1mph /  1.6km/h 78% 0in /  0.0mm 11 W/m2
17:09 51.3 °F /  10.7 °C 45.3 °F /  7.4 °C 29.7in /  1004.4hPa Calm     80% 0in /  0.0mm 9 W/m2
17:14 51.1 °F /  10.6 °C 45.5 °F /  7.5 °C 29.7in /  1004.4hPa Calm   1mph /  1.6km/h 81% 0in /  0.0mm 5 W/m2
17:19 50.7 °F /  10.4 °C 45.5 °F /  7.5 °C 29.7in /  1004.4hPa Calm   3mph /  4.8km/h 82% 0in /  0.0mm 0 W/m2
17:24 50.5 °F /  10.3 °C 45 °F /  7.2 °C 29.7in /  1004.4hPa Calm   2mph /  3.2km/h 81% 0in /  0.0mm 0 W/m2
17:29 50.5 °F /  10.3 °C 45.5 °F /  7.5 °C 29.7in /  1004.7hPa East 0.9mph /  1.4km/h 3mph /  4.8km/h 83% 0in /  0.0mm 0 W/m2
17:34 50.4 °F /  10.2 °C 45.1 °F /  7.3 °C 29.7in /  1004.7hPa Calm   2mph /  3.2km/h 82% 0in /  0.0mm 0 W/m2
17:40 50.2 °F /  10.1 °C 45.1 °F /  7.3 °C 29.7in /  1004.7hPa Calm     83% 0in /  0.0mm 0 W/m2
17:45 50 °F /  10 °C 45.3 °F /  7.4 °C 29.7in /  1004.7hPa SW 0.9mph /  1.4km/h 2mph /  3.2km/h 84% 0in /  0.0mm 0 W/m2
17:50 49.8 °F /  9.9 °C 44.8 °F /  7.1 °C 29.7in /  1004.7hPa Calm   1mph /  1.6km/h 83% 0in /  0.0mm 0 W/m2
17:55 49.6 °F /  9.8 °C 45 °F /  7.2 °C 29.7in /  1004.7hPa SW 0.9mph /  1.4km/h 1mph /  1.6km/h 84% 0in /  0.0mm 0 W/m2
18:00 49.6 °F /  9.8 °C 44.8 °F /  7.1 °C 29.7in /  1004.7hPa NE 0.9mph /  1.4km/h 2mph /  3.2km/h 83% 0in /  0.0mm 0 W/m2
18:05 49.5 °F /  9.7 °C 44.8 °F /  7.1 °C 29.7in /  1004.7hPa NE 2mph /  3.2km/h 2mph /  3.2km/h 84% 0in /  0.0mm 0 W/m2
18:10 49.3 °F /  9.6 °C 44.6 °F /  7 °C 29.7in /  1004.7hPa Calm   1mph /  1.6km/h 84% 0in /  0.0mm 0 W/m2
18:15 48.7 °F /  9.3 °C 44.4 °F /  6.9 °C 29.7in /  1004.7hPa Calm     85% 0in /  0.0mm 0 W/m2
18:20 48.4 °F /  9.1 °C 44.4 °F /  6.9 °C 29.7in /  1004.7hPa Calm   1mph /  1.6km/h 86% 0in /  0.0mm 0 W/m2
18:25 48 °F /  8.9 °C 44.4 °F /  6.9 °C 29.7in /  1004.7hPa Calm     87% 0in /  0.0mm 0 W/m2
18:30 47.7 °F /  8.7 °C 44.1 °F /  6.7 °C 29.7in /  1004.7hPa Calm     87% 0in /  0.0mm 0 W/m2
18:35 47.3 °F /  8.5 °C 43.9 °F /  6.6 °C 29.7in /  1005.1hPa Calm     88% 0in /  0.0mm 0 W/m2
18:40 46.9 °F /  8.3 °C 43.5 °F /  6.4 °C 29.7in /  1005.1hPa Calm     88% 0in /  0.0mm 0 W/m2
18:45 46.8 °F /  8.2 °C 43.7 °F /  6.5 °C 29.7in /  1005.4hPa Calm     89% 0in /  0.0mm 0 W/m2
18:51 46.6 °F /  8.1 °C 43.5 °F /  6.4 °C 29.7in /  1005.4hPa Calm     89% 0in /  0.0mm 0 W/m2
18:56 46.4 °F /  8 °C 43.7 °F /  6.5 °C 29.7in /  1005.4hPa SSE 2mph /  3.2km/h 6mph /  9.7km/h 90% 0in /  0.0mm 0 W/m2
19:01 46.6 °F /  8.1 °C 43.9 °F /  6.6 °C 29.7in /  1005.4hPa Calm   2mph /  3.2km/h 90% 0in /  0.0mm 0 W/m2
19:06 46.6 °F /  8.1 °C 44.1 °F /  6.7 °C 29.7in /  1005.4hPa Calm   6mph /  9.7km/h 91% 0in /  0.0mm 0 W/m2
19:11 46.8 °F /  8.2 °C 44.2 °F /  6.8 °C 29.7in /  1005.4hPa WSW 2mph /  3.2km/h 2mph /  3.2km/h 91% 0in /  0.0mm 0 W/m2
19:16 46.9 °F /  8.3 °C 44.2 °F /  6.8 °C 29.7in /  1005.8hPa Calm     90% 0in /  0.0mm 0 W/m2
19:21 47.3 °F /  8.5 °C 44.6 °F /  7 °C 29.7in /  1005.8hPa NW 2mph /  3.2km/h 3mph /  4.8km/h 90% 0in /  0.0mm 0 W/m2
19:26 48.4 °F /  9.1 °C 45 °F /  7.2 °C 29.7in /  1005.8hPa ENE 2mph /  3.2km/h 3mph /  4.8km/h 88% 0in /  0.0mm 0 W/m2
19:31 49.1 °F /  9.5 °C 44.8 °F /  7.1 °C 29.7in /  1005.8hPa ENE 4.9mph /  7.9km/h 8mph /  12.9km/h 85% 0in /  0.0mm 0 W/m2
19:36 49.5 °F /  9.7 °C 44.8 °F /  7.1 °C 29.7in /  1005.8hPa West 0.9mph /  1.4km/h 9mph /  14.5km/h 84% 0in /  0.0mm 0 W/m2
19:41 49.5 °F /  9.7 °C 44.6 °F /  7 °C 29.7in /  1006.1hPa NW 0.9mph /  1.4km/h 3mph /  4.8km/h 83% 0in /  0.0mm 0 W/m2
19:46 49.5 °F /  9.7 °C 44.6 °F /  7 °C 29.7in /  1006.1hPa NNW 4mph /  6.4km/h 9mph /  14.5km/h 83% 0in /  0.0mm 0 W/m2
19:51 49.3 °F /  9.6 °C 44.6 °F /  7 °C 29.7in /  1006.1hPa North 2mph /  3.2km/h 2mph /  3.2km/h 84% 0in /  0.0mm 0 W/m2
19:56 49.1 °F /  9.5 °C 44.4 °F /  6.9 °C 29.7in /  1006.1hPa NNW 0.9mph /  1.4km/h 3mph /  4.8km/h 84% 0in /  0.0mm 0 W/m2
20:01 48.9 °F /  9.4 °C 44.6 °F /  7 °C 29.7in /  1006.1hPa Calm   3mph /  4.8km/h 85% 0in /  0.0mm 0 W/m2
20:06 48.7 °F /  9.3 °C 44.4 °F /  6.9 °C 29.7in /  1006.1hPa Calm   3mph /  4.8km/h 85% 0in /  0.0mm 0 W/m2
20:11 48.6 °F /  9.2 °C 44.6 °F /  7 °C 29.7in /  1006.1hPa WNW 2.9mph /  4.7km/h 3mph /  4.8km/h 86% 0in /  0.0mm 0 W/m2
20:16 48.4 °F /  9.1 °C 44.4 °F /  6.9 °C 29.7in /  1006.1hPa Calm   2mph /  3.2km/h 86% 0in /  0.0mm 0 W/m2
20:21 48.4 °F /  9.1 °C 44.4 °F /  6.9 °C 29.7in /  1006.1hPa WNW 2.9mph /  4.7km/h 4mph /  6.4km/h 86% 0in /  0.0mm 0 W/m2
20:26 48.2 °F /  9 °C 44.2 °F /  6.8 °C 29.7in /  1005.8hPa Calm   2mph /  3.2km/h 86% 0in /  0.0mm 0 W/m2
20:31 48 °F /  8.9 °C 44.1 °F /  6.7 °C 29.7in /  1005.8hPa SE 0.9mph /  1.4km/h 3mph /  4.8km/h 86% 0in /  0.0mm 0 W/m2
20:36 47.8 °F /  8.8 °C 43.9 °F /  6.6 °C 29.7in /  1005.8hPa Calm   2mph /  3.2km/h 86% 0in /  0.0mm 0 W/m2
20:41 47.8 °F /  8.8 °C 43.9 °F /  6.6 °C 29.7in /  1005.8hPa Calm   3mph /  4.8km/h 86% 0in /  0.0mm 0 W/m2
20:46 47.5 °F /  8.6 °C 43.9 °F /  6.6 °C 29.7in /  1005.8hPa Calm   1mph /  1.6km/h 87% 0in /  0.0mm 0 W/m2
20:51 47.5 °F /  8.6 °C 43.9 °F /  6.6 °C 29.7in /  1005.8hPa Calm     87% 0in /  0.0mm 0 W/m2
20:56 47.1 °F /  8.4 °C 43.5 °F /  6.4 °C 29.7in /  1006.1hPa North 0.9mph /  1.4km/h 1mph /  1.6km/h 87% 0in /  0.0mm 0 W/m2
21:01 46.9 °F /  8.3 °C 43.5 °F /  6.4 °C 29.7in /  1006.1hPa Calm   1mph /  1.6km/h 88% 0in /  0.0mm 0 W/m2
21:06 46.9 °F /  8.3 °C 43.5 °F /  6.4 °C 29.7in /  1006.1hPa NNE 0.9mph /  1.4km/h 2mph /  3.2km/h 88% 0in /  0.0mm 0 W/m2
21:11 46.8 °F /  8.2 °C 43.3 °F /  6.3 °C 29.7in /  1006.1hPa NE 0.9mph /  1.4km/h 4mph /  6.4km/h 88% 0in /  0.0mm 0 W/m2
21:16 46.8 °F /  8.2 °C 43.3 °F /  6.3 °C 29.7in /  1006.1hPa Calm   1mph /  1.6km/h 88% 0in /  0.0mm 0 W/m2
21:21 46.6 °F /  8.1 °C 43.2 °F /  6.2 °C 29.7in /  1006.1hPa Calm   2mph /  3.2km/h 88% 0in /  0.0mm 0 W/m2
21:26 46.6 °F /  8.1 °C 43.5 °F /  6.4 °C 29.7in /  1006.1hPa Calm   1mph /  1.6km/h 89% 0in /  0.0mm 0 W/m2
21:31 46.2 °F /  7.9 °C 43.2 °F /  6.2 °C 29.7in /  1006.1hPa Calm   1mph /  1.6km/h 89% 0in /  0.0mm 0 W/m2
21:37 46 °F /  7.8 °C 43 °F /  6.1 °C 29.7in /  1006.1hPa Calm   2mph /  3.2km/h 89% 0in /  0.0mm 0 W/m2
21:42 45.9 °F /  7.7 °C 43.2 °F /  6.2 °C 29.7in /  1006.1hPa Calm   2mph /  3.2km/h 90% 0in /  0.0mm 0 W/m2
21:47 45.9 °F /  7.7 °C 43.3 °F /  6.3 °C 29.7in /  1006.1hPa Calm   2mph /  3.2km/h 91% 0in /  0.0mm 0 W/m2
21:52 45.9 °F /  7.7 °C 43.3 °F /  6.3 °C 29.7in /  1006.4hPa Calm   2mph /  3.2km/h 91% 0in /  0.0mm 0 W/m2
21:57 45.9 °F /  7.7 °C 43.3 °F /  6.3 °C 29.7in /  1006.1hPa ENE 2mph /  3.2km/h 5mph /  8km/h 91% 0in /  0.0mm 0 W/m2
22:02 46 °F /  7.8 °C 43.5 °F /  6.4 °C 29.7in /  1006.4hPa Calm   2mph /  3.2km/h 91% 0in /  0.0mm 0 W/m2
22:07 46 °F /  7.8 °C 43.3 °F /  6.3 °C 29.7in /  1006.1hPa ESE 2mph /  3.2km/h 6mph /  9.7km/h 90% 0in /  0.0mm 0 W/m2
22:12 46 °F /  7.8 °C 43.3 °F /  6.3 °C 29.7in /  1006.4hPa Calm   2mph /  3.2km/h 90% 0in /  0.0mm 0 W/m2
22:17 46.2 °F /  7.9 °C 43.5 °F /  6.4 °C 29.7in /  1006.1hPa NNE 0.9mph /  1.4km/h 1mph /  1.6km/h 90% 0in /  0.0mm 0 W/m2
22:22 46.2 °F /  7.9 °C 43.5 °F /  6.4 °C 29.7in /  1006.4hPa North 2mph /  3.2km/h 3mph /  4.8km/h 90% 0in /  0.0mm 0 W/m2
22:27 46.6 °F /  8.1 °C 43.5 °F /  6.4 °C 29.7in /  1006.4hPa Calm   1mph /  1.6km/h 89% 0in /  0.0mm 0 W/m2
22:32 46.6 °F /  8.1 °C 43.5 °F /  6.4 °C 29.7in /  1006.4hPa Calm   2mph /  3.2km/h 89% 0in /  0.0mm 0 W/m2
22:37 46.6 °F /  8.1 °C 43.5 °F /  6.4 °C 29.7in /  1006.4hPa NNW 0.9mph /  1.4km/h 2mph /  3.2km/h 89% 0in /  0.0mm 0 W/m2
22:42 46.8 °F /  8.2 °C 43.7 °F /  6.5 °C 29.7in /  1006.4hPa NW 0.9mph /  1.4km/h 1mph /  1.6km/h 89% 0in /  0.0mm 0 W/m2
Juneau County Weather
Compliments of Weather Underground - 4 mb